sensor_id;sensor_type;location;lat;lon;timestamp;pressure;altitude;pressure_sealevel;temperature;humidity
80401;BME280;69727;53.132;8.230;2024-03-25T00:02:06;100355.91;;;4.18;99.27
80401;BME280;69727;53.132;8.230;2024-03-25T00:04:31;100366.53;;;4.18;99.77
80401;BME280;69727;53.132;8.230;2024-03-25T00:06:57;100354.41;;;4.15;99.56
80401;BME280;69727;53.132;8.230;2024-03-25T00:09:23;100370.03;;;4.18;99.39
80401;BME280;69727;53.132;8.230;2024-03-25T00:11:49;100364.19;;;4.23;99.38
80401;BME280;69727;53.132;8.230;2024-03-25T00:14:20;100364.03;;;4.16;99.62
80401;BME280;69727;53.132;8.230;2024-03-25T00:16:45;100366.38;;;4.11;99.32
80401;BME280;69727;53.132;8.230;2024-03-25T00:19:10;100365.84;;;4.08;99.36
80401;BME280;69727;53.132;8.230;2024-03-25T00:21:36;100365.69;;;4.01;99.14
80401;BME280;69727;53.132;8.230;2024-03-25T00:24:02;100373.63;;;3.93;99.53
80401;BME280;69727;53.132;8.230;2024-03-25T00:26:27;100371.00;;;3.85;99.70
80401;BME280;69727;53.132;8.230;2024-03-25T00:28:53;100375.28;;;3.78;99.54
80401;BME280;69727;53.132;8.230;2024-03-25T00:31:18;100365.97;;;3.74;99.76
80401;BME280;69727;53.132;8.230;2024-03-25T00:33:45;100379.22;;;3.66;99.58
80401;BME280;69727;53.132;8.230;2024-03-25T00:36:10;100373.56;;;3.61;99.68
80401;BME280;69727;53.132;8.230;2024-03-25T00:38:36;100369.41;;;3.58;99.58
80401;BME280;69727;53.132;8.230;2024-03-25T00:41:01;100369.75;;;3.55;99.79
80401;BME280;69727;53.132;8.230;2024-03-25T00:43:27;100378.03;;;3.52;99.80
80401;BME280;69727;53.132;8.230;2024-03-25T00:45:52;100373.06;;;3.49;99.74
80401;BME280;69727;53.132;8.230;2024-03-25T00:48:17;100371.38;;;3.48;99.81
80401;BME280;69727;53.132;8.230;2024-03-25T00:50:43;100374.19;;;3.46;99.33
80401;BME280;69727;53.132;8.230;2024-03-25T00:53:08;100367.88;;;3.39;99.95
80401;BME280;69727;53.132;8.230;2024-03-25T00:55:34;100383.50;;;3.42;99.97
80401;BME280;69727;53.132;8.230;2024-03-25T00:58:01;100375.97;;;3.38;100.00
80401;BME280;69727;53.132;8.230;2024-03-25T01:00:27;100373.53;;;3.36;99.88
80401;BME280;69727;53.132;8.230;2024-03-25T01:02:52;100375.97;;;3.38;99.86
80401;BME280;69727;53.132;8.230;2024-03-25T01:05:18;100380.66;;;3.44;99.45
80401;BME280;69727;53.132;8.230;2024-03-25T01:07:43;100369.03;;;3.45;99.10
80401;BME280;69727;53.132;8.230;2024-03-25T01:10:09;100367.75;;;3.49;99.75
80401;BME280;69727;53.132;8.230;2024-03-25T01:12:34;100375.34;;;3.44;99.99
80401;BME280;69727;53.132;8.230;2024-03-25T01:15:00;100376.03;;;3.46;99.80
80401;BME280;69727;53.132;8.230;2024-03-25T01:17:27;100376.53;;;3.49;100.00
80401;BME280;69727;53.132;8.230;2024-03-25T01:19:52;100370.22;;;3.50;100.00
80401;BME280;69727;53.132;8.230;2024-03-25T01:22:18;100362.44;;;3.49;100.00
80401;BME280;69727;53.132;8.230;2024-03-25T01:24:43;100372.91;;;3.59;100.00
80401;BME280;69727;53.132;8.230;2024-03-25T01:27:09;100371.22;;;3.58;100.00
80401;BME280;69727;53.132;8.230;2024-03-25T01:29:34;100376.75;;;3.64;100.00
80401;BME280;69727;53.132;8.230;2024-03-25T01:32:00;100378.38;;;3.65;100.00
80401;BME280;69727;53.132;8.230;2024-03-25T01:34:27;100377.09;;;3.69;100.00
80401;BME280;69727;53.132;8.230;2024-03-25T01:36:53;100375.13;;;3.71;100.00
80401;BME280;69727;53.132;8.230;2024-03-25T01:39:18;100376.75;;;3.72;100.00
80401;BME280;69727;53.132;8.230;2024-03-25T01:41:44;100376.44;;;3.75;100.00
80401;BME280;69727;53.132;8.230;2024-03-25T01:44:10;100383.41;;;3.76;99.95
80401;BME280;69727;53.132;8.230;2024-03-25T01:46:35;100380.78;;;3.84;100.00
80401;BME280;69727;53.132;8.230;2024-03-25T01:49:01;100380.44;;;3.87;99.76
80401;BME280;69727;53.132;8.230;2024-03-25T01:51:27;100383.63;;;3.91;99.62
80401;BME280;69727;53.132;8.230;2024-03-25T01:53:54;100385.59;;;3.89;99.64
80401;BME280;69727;53.132;8.230;2024-03-25T01:56:23;100382.63;;;3.92;100.00
80401;BME280;69727;53.132;8.230;2024-03-25T01:58:49;100384.25;;;3.93;99.58
80401;BME280;69727;53.132;8.230;2024-03-25T02:01:15;100390.09;;;3.97;99.71
80401;BME280;69727;53.132;8.230;2024-03-25T02:03:42;100397.72;;;4.00;99.27
80401;BME280;69727;53.132;8.230;2024-03-25T02:06:15;100398.38;;;4.02;99.40
80401;BME280;69727;53.132;8.230;2024-03-25T02:08:41;100404.38;;;4.04;99.34
80401;BME280;69727;53.132;8.230;2024-03-25T02:11:07;100404.53;;;4.02;99.39
80401;BME280;69727;53.132;8.230;2024-03-25T02:13:34;100402.72;;;4.03;99.36
80401;BME280;69727;53.132;8.230;2024-03-25T02:16:00;100403.38;;;4.05;99.51
80401;BME280;69727;53.132;8.230;2024-03-25T02:18:25;100398.72;;;3.99;99.12
80401;BME280;69727;53.132;8.230;2024-03-25T02:20:51;100404.22;;;4.05;99.31
80401;BME280;69727;53.132;8.230;2024-03-25T02:23:16;100406.53;;;4.08;99.20
80401;BME280;69727;53.132;8.230;2024-03-25T02:25:42;100407.53;;;4.07;99.14
80401;BME280;69727;53.132;8.230;2024-03-25T02:28:09;100406.19;;;4.03;99.35
80401;BME280;69727;53.132;8.230;2024-03-25T02:30:34;100401.38;;;3.99;99.52
80401;BME280;69727;53.132;8.230;2024-03-25T02:33:01;100397.06;;;3.98;99.76
80401;BME280;69727;53.132;8.230;2024-03-25T02:35:27;100406.19;;;3.95;99.63
80401;BME280;69727;53.132;8.230;2024-03-25T02:37:53;100413.31;;;3.94;99.47
80401;BME280;69727;53.132;8.230;2024-03-25T02:40:19;100416.13;;;3.93;99.38
80401;BME280;69727;53.132;8.230;2024-03-25T02:42:46;100413.66;;;3.91;99.60
80401;BME280;69727;53.132;8.230;2024-03-25T02:45:12;100414.50;;;3.92;100.00
80401;BME280;69727;53.132;8.230;2024-03-25T02:47:37;100416.97;;;3.93;100.00
80401;BME280;69727;53.132;8.230;2024-03-25T02:50:03;100414.81;;;3.97;100.00
80401;BME280;69727;53.132;8.230;2024-03-25T02:52:28;100414.16;;;3.95;100.00
80401;BME280;69727;53.132;8.230;2024-03-25T02:54:54;100426.13;;;3.99;99.74
80401;BME280;69727;53.132;8.230;2024-03-25T02:57:20;100429.59;;;4.00;99.93
80401;BME280;69727;53.132;8.230;2024-03-25T02:59:45;100426.47;;;4.04;99.85
80401;BME280;69727;53.132;8.230;2024-03-25T03:02:10;100436.59;;;4.09;100.00
80401;BME280;69727;53.132;8.230;2024-03-25T03:04:36;100436.28;;;4.12;99.61
80401;BME280;69727;53.132;8.230;2024-03-25T03:07:01;100438.25;;;4.10;99.91
80401;BME280;69727;53.132;8.230;2024-03-25T03:09:27;100428.94;;;4.14;100.00
80401;BME280;69727;53.132;8.230;2024-03-25T03:11:52;100449.75;;;4.18;99.31
80401;BME280;69727;53.132;8.230;2024-03-25T03:14:18;100450.56;;;4.19;99.46
80401;BME280;69727;53.132;8.230;2024-03-25T03:16:43;100452.03;;;4.21;98.95
80401;BME280;69727;53.132;8.230;2024-03-25T03:19:08;100456.22;;;4.24;99.41
80401;BME280;69727;53.132;8.230;2024-03-25T03:21:34;100456.91;;;4.26;99.11
80401;BME280;69727;53.132;8.230;2024-03-25T03:23:59;100444.59;;;4.25;99.50
80401;BME280;69727;53.132;8.230;2024-03-25T03:26:25;100445.91;;;4.21;99.46
80401;BME280;69727;53.132;8.230;2024-03-25T03:28:53;100454.91;;;4.20;98.73
80401;BME280;69727;53.132;8.230;2024-03-25T03:31:19;100448.56;;;4.13;98.86
80401;BME280;69727;53.132;8.230;2024-03-25T03:33:47;100455.03;;;4.10;99.31
80401;BME280;69727;53.132;8.230;2024-03-25T03:36:13;100454.03;;;4.03;98.85
80401;BME280;69727;53.132;8.230;2024-03-25T03:38:38;100457.00;;;4.00;99.11
80401;BME280;69727;53.132;8.230;2024-03-25T03:41:03;100463.31;;;4.07;99.12
80401;BME280;69727;53.132;8.230;2024-03-25T03:43:29;100456.69;;;4.11;98.29
80401;BME280;69727;53.132;8.230;2024-03-25T03:45:54;100461.50;;;4.16;98.51
80401;BME280;69727;53.132;8.230;2024-03-25T03:48:20;100468.00;;;4.13;98.70
80401;BME280;69727;53.132;8.230;2024-03-25T03:50:45;100457.72;;;4.18;98.74
80401;BME280;69727;53.132;8.230;2024-03-25T03:53:11;100459.72;;;4.24;98.32
80401;BME280;69727;53.132;8.230;2024-03-25T03:55:37;100460.88;;;4.30;98.37
80401;BME280;69727;53.132;8.230;2024-03-25T03:58:02;100461.88;;;4.29;98.15
80401;BME280;69727;53.132;8.230;2024-03-25T04:00:28;100464.22;;;4.32;98.67
80401;BME280;69727;53.132;8.230;2024-03-25T04:02:54;100453.06;;;4.37;98.40
80401;BME280;69727;53.132;8.230;2024-03-25T04:05:19;100462.03;;;4.44;98.06
80401;BME280;69727;53.132;8.230;2024-03-25T04:07:45;100460.88;;;4.38;97.84
80401;BME280;69727;53.132;8.230;2024-03-25T04:10:11;100467.34;;;4.35;97.88
80401;BME280;69727;53.132;8.230;2024-03-25T04:12:36;100466.53;;;4.35;97.82
80401;BME280;69727;53.132;8.230;2024-03-25T04:15:05;100474.19;;;4.38;97.88
80401;BME280;69727;53.132;8.230;2024-03-25T04:17:31;100475.16;;;4.37;97.87
80401;BME280;69727;53.132;8.230;2024-03-25T04:19:58;100469.38;;;4.33;97.56
80401;BME280;69727;53.132;8.230;2024-03-25T04:22:25;100470.53;;;4.39;97.93
80401;BME280;69727;53.132;8.230;2024-03-25T04:24:51;100470.53;;;4.39;97.49
80401;BME280;69727;53.132;8.230;2024-03-25T04:27:16;100475.00;;;4.30;97.21
80401;BME280;69727;53.132;8.230;2024-03-25T04:29:42;100482.31;;;4.37;97.28
80401;BME280;69727;53.132;8.230;2024-03-25T04:32:07;100478.16;;;4.34;97.13
80401;BME280;69727;53.132;8.230;2024-03-25T04:34:33;100477.34;;;4.33;97.18
80401;BME280;69727;53.132;8.230;2024-03-25T04:36:59;100477.66;;;4.30;97.03
80401;BME280;69727;53.132;8.230;2024-03-25T04:39:25;100479.47;;;4.22;97.37
80401;BME280;69727;53.132;8.230;2024-03-25T04:41:50;100478.50;;;4.31;97.05
80401;BME280;69727;53.132;8.230;2024-03-25T04:44:15;100487.78;;;4.27;97.21
80401;BME280;69727;53.132;8.230;2024-03-25T04:46:43;100493.56;;;4.22;96.94
80401;BME280;69727;53.132;8.230;2024-03-25T04:49:08;100494.38;;;4.15;97.16
80401;BME280;69727;53.132;8.230;2024-03-25T04:51:34;100499.53;;;4.08;97.83
80401;BME280;69727;53.132;8.230;2024-03-25T04:53:59;100508.47;;;3.99;97.91
80401;BME280;69727;53.132;8.230;2024-03-25T04:56:25;100517.44;;;3.98;98.46
80401;BME280;69727;53.132;8.230;2024-03-25T04:58:50;100516.91;;;3.94;98.52
80401;BME280;69727;53.132;8.230;2024-03-25T05:01:16;100516.91;;;3.94;98.60
80401;BME280;69727;53.132;8.230;2024-03-25T05:03:42;100518.91;;;4.01;99.01
80401;BME280;69727;53.132;8.230;2024-03-25T05:06:07;100518.47;;;4.05;98.76
80401;BME280;69727;53.132;8.230;2024-03-25T05:08:36;100534.75;;;4.10;98.07
80401;BME280;69727;53.132;8.230;2024-03-25T05:11:01;100537.22;;;4.04;97.53
80401;BME280;69727;53.132;8.230;2024-03-25T05:13:27;100541.53;;;4.05;98.00
80401;BME280;69727;53.132;8.230;2024-03-25T05:15:52;100536.22;;;4.05;97.90
80401;BME280;69727;53.132;8.230;2024-03-25T05:18:18;100538.38;;;4.09;97.61
80401;BME280;69727;53.132;8.230;2024-03-25T05:20:44;100532.22;;;4.09;96.89
80401;BME280;69727;53.132;8.230;2024-03-25T05:23:10;100544.88;;;4.15;96.80
80401;BME280;69727;53.132;8.230;2024-03-25T05:25:36;100535.75;;;4.17;96.73
80401;BME280;69727;53.132;8.230;2024-03-25T05:28:02;100530.28;;;4.19;96.71
80401;BME280;69727;53.132;8.230;2024-03-25T05:30:27;100528.63;;;4.18;96.41
80401;BME280;69727;53.132;8.230;2024-03-25T05:32:52;100527.78;;;4.17;96.52
80401;BME280;69727;53.132;8.230;2024-03-25T05:35:18;100529.59;;;4.17;96.60
80401;BME280;69727;53.132;8.230;2024-03-25T05:37:44;100531.97;;;4.20;96.02
80401;BME280;69727;53.132;8.230;2024-03-25T05:40:09;100528.13;;;4.22;95.78
80401;BME280;69727;53.132;8.230;2024-03-25T05:42:37;100531.16;;;4.35;95.25
80401;BME280;69727;53.132;8.230;2024-03-25T05:45:03;100533.66;;;4.37;95.15
80401;BME280;69727;53.132;8.230;2024-03-25T05:47:28;100535.81;;;4.33;95.24
80401;BME280;69727;53.132;8.230;2024-03-25T05:49:54;100549.94;;;4.34;95.45
80401;BME280;69727;53.132;8.230;2024-03-25T05:52:19;100548.25;;;4.33;95.40
80401;BME280;69727;53.132;8.230;2024-03-25T05:54:45;100549.94;;;4.34;95.13
80401;BME280;69727;53.132;8.230;2024-03-25T05:57:10;100550.09;;;4.32;95.02
80401;BME280;69727;53.132;8.230;2024-03-25T05:59:35;100562.88;;;4.37;95.07
80401;BME280;69727;53.132;8.230;2024-03-25T06:02:01;100563.56;;;4.39;94.44
80401;BME280;69727;53.132;8.230;2024-03-25T06:04:26;100562.56;;;4.40;94.87
80401;BME280;69727;53.132;8.230;2024-03-25T06:06:52;100562.38;;;4.42;94.32
80401;BME280;69727;53.132;8.230;2024-03-25T06:09:17;100574.72;;;4.51;94.91
80401;BME280;69727;53.132;8.230;2024-03-25T06:11:42;100570.22;;;4.51;94.63
80401;BME280;69727;53.132;8.230;2024-03-25T06:14:08;100563.25;;;4.50;93.76
80401;BME280;69727;53.132;8.230;2024-03-25T06:16:33;100572.38;;;4.56;93.73
80401;BME280;69727;53.132;8.230;2024-03-25T06:18:59;100577.06;;;4.54;93.52
80401;BME280;69727;53.132;8.230;2024-03-25T06:21:24;100578.38;;;4.58;93.02
80401;BME280;69727;53.132;8.230;2024-03-25T06:23:49;100572.56;;;4.54;93.05
80401;BME280;69727;53.132;8.230;2024-03-25T06:26:15;100562.25;;;4.51;92.71
80401;BME280;69727;53.132;8.230;2024-03-25T06:28:40;100574.72;;;4.51;93.21
80401;BME280;69727;53.132;8.230;2024-03-25T06:31:05;100569.25;;;4.52;94.02
80401;BME280;69727;53.132;8.230;2024-03-25T06:33:49;100576.22;;;4.53;92.92
80401;BME280;69727;53.132;8.230;2024-03-25T06:36:36;100569.25;;;4.52;93.34
80401;BME280;69727;53.132;8.230;2024-03-25T06:39:02;100571.75;;;4.62;93.92
80401;BME280;69727;53.132;8.230;2024-03-25T06:41:28;100560.75;;;4.57;94.09
80401;BME280;69727;53.132;8.230;2024-03-25T06:43:53;100563.44;;;4.65;94.18
80401;BME280;69727;53.132;8.230;2024-03-25T06:46:19;100570.09;;;4.77;93.54
80401;BME280;69727;53.132;8.230;2024-03-25T06:48:44;100577.44;;;4.83;93.54
80401;BME280;69727;53.132;8.230;2024-03-25T06:51:10;100573.44;;;4.87;92.36
80401;BME280;69727;53.132;8.230;2024-03-25T06:53:35;100573.63;;;4.94;92.07
80401;BME280;69727;53.132;8.230;2024-03-25T06:56:01;100584.09;;;5.03;92.45
80401;BME280;69727;53.132;8.230;2024-03-25T06:58:27;100596.41;;;5.04;91.97
80401;BME280;69727;53.132;8.230;2024-03-25T07:00:54;100589.44;;;5.03;91.71
80401;BME280;69727;53.132;8.230;2024-03-25T07:03:22;100595.59;;;5.04;91.79
80401;BME280;69727;53.132;8.230;2024-03-25T07:05:49;100602.53;;;5.05;91.19
80401;BME280;69727;53.132;8.230;2024-03-25T07:10:42;100599.56;;;5.16;90.05
80401;BME280;69727;53.132;8.230;2024-03-25T07:13:08;100602.06;;;5.18;90.15
80401;BME280;69727;53.132;8.230;2024-03-25T07:15:34;100613.72;;;5.25;89.97
80401;BME280;69727;53.132;8.230;2024-03-25T07:18:00;100611.53;;;5.28;89.45
80401;BME280;69727;53.132;8.230;2024-03-25T07:20:25;100620.19;;;5.38;87.95
80401;BME280;69727;53.132;8.230;2024-03-25T07:22:55;100621.69;;;5.41;86.64
80401;BME280;69727;53.132;8.230;2024-03-25T07:25:24;100624.19;;;5.42;86.54
80401;BME280;69727;53.132;8.230;2024-03-25T07:27:49;100621.84;;;5.47;86.74
80401;BME280;69727;53.132;8.230;2024-03-25T07:30:15;100618.84;;;5.50;86.40
80401;BME280;69727;53.132;8.230;2024-03-25T07:32:41;100615.03;;;5.53;87.42
80401;BME280;69727;53.132;8.230;2024-03-25T07:35:06;100621.16;;;5.62;86.91
80401;BME280;69727;53.132;8.230;2024-03-25T07:37:34;100612.84;;;5.73;87.40
80401;BME280;69727;53.132;8.230;2024-03-25T07:39:59;100605.16;;;5.78;85.16
80401;BME280;69727;53.132;8.230;2024-03-25T07:42:25;100613.00;;;5.87;83.51
80401;BME280;69727;53.132;8.230;2024-03-25T07:44:50;100612.13;;;5.87;84.01
80401;BME280;69727;53.132;8.230;2024-03-25T07:47:15;100607.69;;;5.87;82.93
80401;BME280;69727;53.132;8.230;2024-03-25T07:49:41;100612.78;;;5.97;83.36
80401;BME280;69727;53.132;8.230;2024-03-25T07:52:06;100617.56;;;6.10;82.82
80401;BME280;69727;53.132;8.230;2024-03-25T07:54:32;100611.38;;;6.17;82.42
80401;BME280;69727;53.132;8.230;2024-03-25T07:56:58;100617.06;;;6.14;82.17
80401;BME280;69727;53.132;8.230;2024-03-25T07:59:23;100623.25;;;6.15;83.08
80401;BME280;69727;53.132;8.230;2024-03-25T08:01:49;100628.78;;;5.97;81.14
80401;BME280;69727;53.132;8.230;2024-03-25T08:04:14;100624.94;;;6.00;82.60
80401;BME280;69727;53.132;8.230;2024-03-25T08:06:40;100624.63;;;6.03;81.06
80401;BME280;69727;53.132;8.230;2024-03-25T08:09:05;100628.59;;;6.07;82.07
80401;BME280;69727;53.132;8.230;2024-03-25T08:11:31;100629.75;;;6.12;81.52
80401;BME280;69727;53.132;8.230;2024-03-25T08:13:57;100632.06;;;6.15;80.49
80401;BME280;69727;53.132;8.230;2024-03-25T08:16:23;100626.06;;;6.21;80.56
80401;BME280;69727;53.132;8.230;2024-03-25T08:18:48;100624.84;;;6.24;79.31
80401;BME280;69727;53.132;8.230;2024-03-25T08:21:14;100632.69;;;6.25;78.49
80401;BME280;69727;53.132;8.230;2024-03-25T08:23:39;100634.19;;;6.28;79.57
80401;BME280;69727;53.132;8.230;2024-03-25T08:26:05;100625.31;;;6.36;79.17
80401;BME280;69727;53.132;8.230;2024-03-25T08:28:31;100625.63;;;6.41;77.35
80401;BME280;69727;53.132;8.230;2024-03-25T08:30:57;100627.28;;;6.42;76.71
80401;BME280;69727;53.132;8.230;2024-03-25T08:33:22;100623.25;;;6.46;77.03
80401;BME280;69727;53.132;8.230;2024-03-25T08:35:47;100621.97;;;6.42;76.17
80401;BME280;69727;53.132;8.230;2024-03-25T08:38:13;100638.03;;;6.64;75.86
80401;BME280;69727;53.132;8.230;2024-03-25T08:40:38;100639.44;;;6.75;76.54
80401;BME280;69727;53.132;8.230;2024-03-25T08:43:05;100637.25;;;6.87;75.41
80401;BME280;69727;53.132;8.230;2024-03-25T08:45:31;100643.09;;;7.05;76.87
80401;BME280;69727;53.132;8.230;2024-03-25T08:47:57;100648.97;;;7.23;73.36
80401;BME280;69727;53.132;8.230;2024-03-25T08:50:22;100637.47;;;7.23;72.62
80401;BME280;69727;53.132;8.230;2024-03-25T08:52:48;100646.97;;;7.25;73.67
80401;BME280;69727;53.132;8.230;2024-03-25T08:55:13;100643.13;;;7.28;73.69
80401;BME280;69727;53.132;8.230;2024-03-25T08:57:39;100644.56;;;7.30;73.58
80401;BME280;69727;53.132;8.230;2024-03-25T09:00:05;100638.94;;;7.25;74.22
80401;BME280;69727;53.132;8.230;2024-03-25T09:02:35;100642.69;;;7.16;74.56
80401;BME280;69727;53.132;8.230;2024-03-25T09:05:01;100645.53;;;7.37;75.37
80401;BME280;69727;53.132;8.230;2024-03-25T09:07:28;100644.56;;;7.53;72.66
80401;BME280;69727;53.132;8.230;2024-03-25T09:09:53;100651.13;;;7.65;72.30
80401;BME280;69727;53.132;8.230;2024-03-25T09:12:37;100645.84;;;7.57;68.65
80401;BME280;69727;53.132;8.230;2024-03-25T09:15:02;100643.00;;;7.59;69.60
80401;BME280;69727;53.132;8.230;2024-03-25T09:17:28;100643.19;;;7.57;69.05
80401;BME280;69727;53.132;8.230;2024-03-25T09:19:54;100648.28;;;7.67;70.51
80401;BME280;69727;53.132;8.230;2024-03-25T09:22:19;100650.28;;;7.65;70.50
80401;BME280;69727;53.132;8.230;2024-03-25T09:24:44;100645.56;;;7.89;70.61
80401;BME280;69727;53.132;8.230;2024-03-25T09:27:10;100646.13;;;8.14;70.08
80401;BME280;69727;53.132;8.230;2024-03-25T09:29:35;100644.94;;;8.46;69.89
80401;BME280;69727;53.132;8.230;2024-03-25T09:32:01;100645.34;;;8.79;67.20
80401;BME280;69727;53.132;8.230;2024-03-25T09:34:28;100647.03;;;9.01;66.44
80401;BME280;69727;53.132;8.230;2024-03-25T09:36:53;100647.31;;;8.92;66.70
80401;BME280;69727;53.132;8.230;2024-03-25T09:39:18;100642.94;;;8.70;65.61
80401;BME280;69727;53.132;8.230;2024-03-25T09:41:46;100645.38;;;8.64;65.49
80401;BME280;69727;53.132;8.230;2024-03-25T09:44:12;100639.94;;;8.58;63.71
80401;BME280;69727;53.132;8.230;2024-03-25T09:46:38;100646.38;;;8.63;64.13
80401;BME280;69727;53.132;8.230;2024-03-25T09:49:03;100648.91;;;8.50;65.05
80401;BME280;69727;53.132;8.230;2024-03-25T09:51:31;100650.97;;;8.34;64.36
80401;BME280;69727;53.132;8.230;2024-03-25T09:53:57;100655.91;;;8.37;64.29
80401;BME280;69727;53.132;8.230;2024-03-25T09:56:22;100656.66;;;8.45;64.50
80401;BME280;69727;53.132;8.230;2024-03-25T09:58:48;100655.50;;;8.69;63.84
80401;BME280;69727;53.132;8.230;2024-03-25T10:01:14;100648.19;;;8.78;62.07
80401;BME280;69727;53.132;8.230;2024-03-25T10:03:40;100655.94;;;8.87;63.66
80401;BME280;69727;53.132;8.230;2024-03-25T10:06:05;100651.16;;;8.83;61.57
80401;BME280;69727;53.132;8.230;2024-03-25T10:08:33;100652.72;;;8.77;60.70
80401;BME280;69727;53.132;8.230;2024-03-25T10:10:58;100654.19;;;8.80;61.87
80401;BME280;69727;53.132;8.230;2024-03-25T10:13:26;100656.63;;;8.75;61.75
80401;BME280;69727;53.132;8.230;2024-03-25T10:15:51;100658.00;;;8.71;61.46
80401;BME280;69727;53.132;8.230;2024-03-25T10:18:17;100649.50;;;8.82;62.43
80401;BME280;69727;53.132;8.230;2024-03-25T10:20:51;100655.09;;;8.87;61.01
80401;BME280;69727;53.132;8.230;2024-03-25T10:23:20;100652.72;;;8.77;61.36
80401;BME280;69727;53.132;8.230;2024-03-25T10:25:48;100653.72;;;8.76;61.00
80401;BME280;69727;53.132;8.230;2024-03-25T10:28:13;100659.88;;;8.91;61.82
80401;BME280;69727;53.132;8.230;2024-03-25T10:30:40;100658.50;;;8.95;61.12
80401;BME280;69727;53.132;8.230;2024-03-25T10:33:07;100656.38;;;8.91;60.88
80401;BME280;69727;53.132;8.230;2024-03-25T10:35:36;100654.06;;;9.02;60.75
80401;BME280;69727;53.132;8.230;2024-03-25T10:38:08;100659.34;;;8.96;61.27
80401;BME280;69727;53.132;8.230;2024-03-25T10:40:37;100656.22;;;9.14;60.63
80401;BME280;69727;53.132;8.230;2024-03-25T10:43:07;100664.72;;;9.17;60.42
80401;BME280;69727;53.132;8.230;2024-03-25T10:45:35;100653.22;;;9.23;59.61
80401;BME280;69727;53.132;8.230;2024-03-25T10:48:15;100658.28;;;9.61;59.99
80401;BME280;69727;53.132;8.230;2024-03-25T10:50:43;100655.84;;;9.87;60.20
80401;BME280;69727;53.132;8.230;2024-03-25T10:53:10;100656.13;;;9.99;59.53
80401;BME280;69727;53.132;8.230;2024-03-25T10:55:36;100655.72;;;10.23;59.85
80401;BME280;69727;53.132;8.230;2024-03-25T10:58:04;100658.94;;;10.53;58.05
80401;BME280;69727;53.132;8.230;2024-03-25T11:00:30;100655.59;;;10.44;57.87
80401;BME280;69727;53.132;8.230;2024-03-25T11:02:59;100650.41;;;10.08;58.15
80401;BME280;69727;53.132;8.230;2024-03-25T11:05:25;100655.97;;;10.35;58.17
80401;BME280;69727;53.132;8.230;2024-03-25T11:07:51;100648.38;;;10.51;55.31
80401;BME280;69727;53.132;8.230;2024-03-25T11:10:16;100646.16;;;11.29;55.80
80401;BME280;69727;53.132;8.230;2024-03-25T11:12:42;100637.22;;;11.09;54.23
80401;BME280;69727;53.132;8.230;2024-03-25T11:15:09;100639.13;;;11.21;55.35
80401;BME280;69727;53.132;8.230;2024-03-25T11:17:35;100632.50;;;11.17;56.93
80401;BME280;69727;53.132;8.230;2024-03-25T11:20:08;100637.22;;;11.02;55.67
80401;BME280;69727;53.132;8.230;2024-03-25T11:22:33;100644.91;;;11.38;54.21
80401;BME280;69727;53.132;8.230;2024-03-25T11:25:05;100630.06;;;11.62;52.24
80401;BME280;69727;53.132;8.230;2024-03-25T11:27:36;100618.88;;;11.52;51.31
80401;BME280;69727;53.132;8.230;2024-03-25T11:30:03;100628.19;;;11.89;51.10
80401;BME280;69727;53.132;8.230;2024-03-25T11:32:43;100628.19;;;11.89;51.03
80401;BME280;69727;53.132;8.230;2024-03-25T11:35:09;100625.16;;;12.43;49.27
80401;BME280;69727;53.132;8.230;2024-03-25T11:37:39;100624.34;;;12.36;47.93
80401;BME280;69727;53.132;8.230;2024-03-25T11:40:05;100617.81;;;12.12;48.43
80401;BME280;69727;53.132;8.230;2024-03-25T11:42:32;100615.97;;;11.73;49.95
80401;BME280;69727;53.132;8.230;2024-03-25T11:45:00;100617.84;;;11.53;50.38
80401;BME280;69727;53.132;8.230;2024-03-25T11:47:25;100617.03;;;11.78;50.15
80401;BME280;69727;53.132;8.230;2024-03-25T11:49:51;100619.50;;;11.93;49.04
80401;BME280;69727;53.132;8.230;2024-03-25T11:52:17;100611.25;;;11.42;51.85
80401;BME280;69727;53.132;8.230;2024-03-25T11:54:42;100606.69;;;11.49;50.75
80401;BME280;69727;53.132;8.230;2024-03-25T11:57:08;100600.06;;;11.32;52.33
80401;BME280;69727;53.132;8.230;2024-03-25T11:59:34;100613.81;;;10.83;53.29
80401;BME280;69727;53.132;8.230;2024-03-25T12:01:59;100610.28;;;10.69;53.80
80401;BME280;69727;53.132;8.230;2024-03-25T12:04:26;100603.75;;;10.37;54.26
80401;BME280;69727;53.132;8.230;2024-03-25T12:06:54;100604.66;;;10.57;54.63
80401;BME280;69727;53.132;8.230;2024-03-25T12:09:22;100606.53;;;10.63;54.75
80401;BME280;69727;53.132;8.230;2024-03-25T12:12:07;100601.16;;;10.63;53.96
80401;BME280;69727;53.132;8.230;2024-03-25T12:14:33;100588.03;;;11.01;53.78
80401;BME280;69727;53.132;8.230;2024-03-25T12:16:59;100593.44;;;11.28;52.88
80401;BME280;69727;53.132;8.230;2024-03-25T12:19:24;100592.41;;;11.88;53.85
80401;BME280;69727;53.132;8.230;2024-03-25T12:21:50;100574.03;;;12.36;52.01
80401;BME280;69727;53.132;8.230;2024-03-25T12:24:15;100579.38;;;12.87;50.46
80401;BME280;69727;53.132;8.230;2024-03-25T12:26:41;100572.72;;;13.46;47.14
80401;BME280;69727;53.132;8.230;2024-03-25T12:29:07;100572.91;;;14.12;44.90
80401;BME280;69727;53.132;8.230;2024-03-25T12:31:32;100563.47;;;14.22;44.96
80401;BME280;69727;53.132;8.230;2024-03-25T12:33:58;100563.66;;;14.02;46.28
80401;BME280;69727;53.132;8.230;2024-03-25T12:36:23;100561.13;;;13.89;48.15
80401;BME280;69727;53.132;8.230;2024-03-25T12:38:55;100559.00;;;13.29;49.04
80401;BME280;69727;53.132;8.230;2024-03-25T12:41:22;100566.47;;;12.96;49.62
80401;BME280;69727;53.132;8.230;2024-03-25T12:43:50;100565.47;;;12.52;51.66
80401;BME280;69727;53.132;8.230;2024-03-25T12:46:16;100564.47;;;11.83;53.13
80401;BME280;69727;53.132;8.230;2024-03-25T12:48:41;100563.66;;;11.16;54.54
80401;BME280;69727;53.132;8.230;2024-03-25T12:51:13;100564.50;;;11.23;56.02
80401;BME280;69727;53.132;8.230;2024-03-25T12:53:38;100561.16;;;10.95;56.41
80401;BME280;69727;53.132;8.230;2024-03-25T12:56:04;100561.34;;;10.80;57.27